Time;durP1;ratioP1;P1;durP2;ratioP2;P2;SDS_P1;SDS_P2;PMS_P1;PMS_P2;Temp;Humidity;BMP_temperature;BMP_pressure;BME280_temperature;BME280_humidity;BME280_pressure;Samples;Min_cycle;Max_cycle;Signal;HPM_P1;HPM_P2
2023/09/02 00:00:54;;;;;;;8.52;3.55;;;;;;;-145.70;100.00;63560.63;5033440;28;20163;-72
2023/09/02 00:03:19;;;;;;;9.65;3.42;;;;;;;-145.70;100.00;63560.63;5044937;28;20059;-72
2023/09/02 00:05:47;;;;;;;6.90;3.50;;;;;;;-145.70;100.00;63560.63;5009871;28;20032;-72
2023/09/02 00:08:12;;;;;;;6.80;3.17;;;;;;;-145.70;100.00;63560.63;5008028;28;20040;-70
2023/09/02 00:10:38;;;;;;;6.35;3.25;;;;;;;-145.70;100.00;63560.63;5026934;28;20455;-70
2023/09/02 00:13:05;;;;;;;6.90;3.10;;;;;;;-145.70;100.00;63560.63;5021774;28;20040;-70
2023/09/02 00:15:31;;;;;;;6.90;3.10;;;;;;;-145.70;100.00;63560.63;5019975;28;20029;-74
2023/09/02 00:17:56;;;;;;;6.65;3.30;;;;;;;-145.70;100.00;63560.63;5044075;28;20033;-72
2023/09/02 00:20:24;;;;;;;6.75;3.42;;;;;;;-145.70;100.00;63560.63;5034726;28;20131;-72
2023/09/02 00:22:49;;;;;;;6.25;3.40;;;;;;;-145.70;100.00;63560.63;5033123;28;20036;-71
2023/09/02 00:25:15;;;;;;;6.28;2.92;;;;;;;-145.70;100.00;63560.63;5035195;28;20069;-72
2023/09/02 00:27:40;;;;;;;7.55;3.10;;;;;;;-145.70;100.00;63560.63;5018875;28;20052;-70
2023/09/02 00:30:08;;;;;;;6.88;3.08;;;;;;;-145.70;100.00;63560.63;5014050;28;20747;-74
2023/09/02 00:32:36;;;;;;;7.50;3.30;;;;;;;-145.70;100.00;63560.63;5050580;28;20028;-72
2023/09/02 00:35:07;;;;;;;7.35;3.40;;;;;;;-145.70;100.00;63560.63;5046757;28;20033;-73
2023/09/02 00:37:32;;;;;;;6.45;3.55;;;;;;;-145.70;100.00;63560.63;5031117;28;20044;-68
2023/09/02 00:40:00;;;;;;;6.47;2.97;;;;;;;-145.70;100.00;63560.63;5032702;28;20048;-71
2023/09/02 00:42:27;;;;;;;6.60;3.30;;;;;;;-145.70;100.00;63560.63;5034536;28;20033;-69
2023/09/02 00:44:52;;;;;;;6.85;3.50;;;;;;;-145.70;100.00;63560.63;5046692;28;20041;-71
2023/09/02 00:47:18;;;;;;;5.93;3.13;;;;;;;-145.70;100.00;63560.63;5032293;28;20294;-72
2023/09/02 00:49:44;;;;;;;7.97;3.47;;;;;;;-145.70;100.00;63560.63;5033091;28;20032;-73
2023/09/02 00:52:09;;;;;;;6.25;3.25;;;;;;;-145.70;100.00;63560.63;5018483;28;20032;-74
2023/09/02 00:54:37;;;;;;;7.45;3.35;;;;;;;-145.70;100.00;63560.63;5020862;28;20495;-72
2023/09/02 00:57:06;;;;;;;6.13;3.40;;;;;;;-145.70;100.00;63560.63;5053427;28;20339;-70
2023/09/02 00:59:34;;;;;;;6.25;3.33;;;;;;;-145.70;100.00;63560.63;5021042;28;20713;-70
2023/09/02 01:02:01;;;;;;;7.63;3.20;;;;;;;-145.70;100.00;63560.63;5047525;28;20059;-71
2023/09/02 01:04:31;;;;;;;6.82;3.42;;;;;;;-145.70;100.00;63560.63;5034288;28;20037;-71
2023/09/02 01:06:58;;;;;;;6.38;3.28;;;;;;;-145.70;100.00;63560.63;5035811;28;20037;-72
2023/09/02 01:09:26;;;;;;;6.25;3.35;;;;;;;-145.70;100.00;63560.63;5035792;28;20029;-69
2023/09/02 01:11:51;;;;;;;6.22;3.50;;;;;;;-145.70;100.00;63560.63;5036629;28;20160;-71
2023/09/02 01:14:17;;;;;;;6.80;3.03;;;;;;;-145.70;100.00;63560.63;5035935;28;20193;-70
2023/09/02 01:16:42;;;;;;;6.57;3.08;;;;;;;-145.70;100.00;63560.63;5034667;28;20041;-70
2023/09/02 01:19:12;;;;;;;7.95;3.38;;;;;;;-145.70;100.00;63560.63;5054394;28;20037;-75
2023/09/02 01:22:09;;;;;;;6.85;3.20;;;;;;;-145.70;100.00;63560.63;5047960;28;20120;-73
2023/09/02 01:24:51;;;;;;;6.13;3.22;;;;;;;-145.70;100.00;63560.63;5023896;28;20025;-69
2023/09/02 01:27:25;;;;;;;7.05;3.25;;;;;;;-145.70;100.00;63560.63;5026443;28;20095;-68
2023/09/02 01:30:21;;;;;;;6.50;3.30;;;;;;;-145.70;100.00;63560.63;5023972;28;20040;-70
2023/09/02 01:32:51;;;;;;;7.53;3.45;;;;;;;-145.70;100.00;63560.63;5021195;28;20136;-69
2023/09/02 01:35:24;;;;;;;7.07;3.33;;;;;;;-145.70;100.00;63560.63;5031719;28;20033;-72
2023/09/02 01:37:52;;;;;;;9.32;3.65;;;;;;;-145.70;100.00;63560.63;5034728;28;20912;-72
2023/09/02 01:40:24;;;;;;;7.15;3.70;;;;;;;-145.70;100.00;63560.63;5050141;28;20033;-68
2023/09/02 01:42:51;;;;;;;6.78;3.50;;;;;;;-145.70;100.00;63560.63;5035197;28;20142;-71
2023/09/02 01:45:20;;;;;;;6.45;3.60;;;;;;;-145.70;100.00;63560.63;5052727;28;21422;-70
2023/09/02 01:47:47;;;;;;;10.43;3.90;;;;;;;-145.70;100.00;63560.63;5035438;28;20411;-72
2023/09/02 01:50:17;;;;;;;8.00;3.45;;;;;;;-145.70;100.00;63560.63;5017601;28;20026;-72
2023/09/02 01:52:43;;;;;;;6.68;3.40;;;;;;;-145.70;100.00;63560.63;5004204;28;20033;-70
2023/09/02 01:55:08;;;;;;;6.90;3.72;;;;;;;-145.70;100.00;63560.63;5030641;28;20036;-72
2023/09/02 01:57:34;;;;;;;7.40;3.55;;;;;;;-145.70;100.00;63560.63;5029423;28;20029;-69
2023/09/02 02:00:04;;;;;;;7.43;3.70;;;;;;;-145.70;100.00;63560.63;5023121;28;20129;-74
2023/09/02 02:02:30;;;;;;;7.80;3.80;;;;;;;-145.70;100.00;63560.63;5037059;28;20107;-70
2023/09/02 02:05:02;;;;;;;7.13;3.42;;;;;;;-145.70;100.00;63560.63;5022438;28;20048;-71
2023/09/02 02:07:35;;;;;;;8.50;3.50;;;;;;;-145.70;100.00;63560.63;5054769;28;20048;-73
2023/09/02 02:10:06;;;;;;;6.88;3.40;;;;;;;-145.70;100.00;63560.63;5056839;28;20025;-70
2023/09/02 02:12:32;;;;;;;8.13;3.80;;;;;;;-145.70;100.00;63560.63;5023867;28;20044;-71
2023/09/02 02:14:57;;;;;;;6.18;3.53;;;;;;;-145.70;100.00;63560.63;5055327;28;20021;-71
2023/09/02 02:17:23;;;;;;;6.28;3.40;;;;;;;-145.70;100.00;63560.63;5036286;28;20037;-71
2023/09/02 02:19:48;;;;;;;6.85;3.65;;;;;;;-145.70;100.00;63560.63;5023001;28;20036;-72
2023/09/02 02:22:18;;;;;;;6.80;3.60;;;;;;;-145.70;100.00;63560.63;5021841;28;20410;-73
2023/09/02 02:24:46;;;;;;;7.18;3.83;;;;;;;-145.70;100.00;63560.63;5036145;28;20488;-73
2023/09/02 02:27:13;;;;;;;6.65;3.63;;;;;;;-145.70;100.00;63560.63;5024856;28;20048;-67
2023/09/02 02:29:39;;;;;;;6.10;3.55;;;;;;;-145.70;100.00;63560.63;5025865;28;20028;-73
2023/09/02 02:32:04;;;;;;;6.47;3.38;;;;;;;-145.70;100.00;63560.63;5036084;28;20041;-74
2023/09/02 02:34:30;;;;;;;9.20;3.90;;;;;;;-145.70;100.00;63560.63;5046658;28;20025;-72
2023/09/02 02:36:57;;;;;;;8.90;3.58;;;;;;;-145.70;100.00;63560.63;5019369;28;20041;-70
2023/09/02 02:39:25;;;;;;;6.47;3.45;;;;;;;-145.70;100.00;63560.63;5043987;28;20399;-71
2023/09/02 02:41:52;;;;;;;7.80;3.30;;;;;;;-145.70;100.00;63560.63;5045878;28;20045;-70
2023/09/02 02:44:18;;;;;;;7.85;3.78;;;;;;;-145.70;100.00;63560.63;5039792;28;20037;-71
2023/09/02 02:46:47;;;;;;;9.60;3.80;;;;;;;-145.70;100.00;63560.63;5024547;28;20511;-70
2023/09/02 02:49:12;;;;;;;6.17;3.80;;;;;;;-145.70;100.00;63560.63;5025364;28;20028;-70
2023/09/02 02:51:38;;;;;;;7.25;3.72;;;;;;;-145.70;100.00;63560.63;5016826;28;20035;-68
2023/09/02 02:54:03;;;;;;;6.88;3.60;;;;;;;-145.70;100.00;63560.63;5023432;28;20463;-70
2023/09/02 02:56:29;;;;;;;7.68;4.80;;;;;;;-145.70;100.00;63560.63;5034320;28;20493;-73
2023/09/02 02:58:59;;;;;;;7.97;3.80;;;;;;;-145.70;100.00;63560.63;5030151;28;20071;-73
2023/09/02 03:01:27;;;;;;;7.90;3.90;;;;;;;-145.70;100.00;63560.63;5028484;28;20037;-73
2023/09/02 03:03:52;;;;;;;7.32;3.72;;;;;;;-145.70;100.00;63560.63;5015046;28;20530;-71
2023/09/02 03:06:21;;;;;;;6.93;3.50;;;;;;;-145.70;100.00;63560.63;5023030;28;20520;-70
2023/09/02 03:08:47;;;;;;;6.80;3.88;;;;;;;-145.70;100.00;63560.63;5019351;28;20712;-73
2023/09/02 03:11:12;;;;;;;7.65;3.55;;;;;;;-145.70;100.00;63560.63;5025994;28;20538;-76
2023/09/02 03:13:38;;;;;;;7.18;3.97;;;;;;;-145.70;100.00;63560.63;5017762;28;20066;-71
2023/09/02 03:16:04;;;;;;;9.00;3.47;;;;;;;-145.70;100.00;63560.63;5037684;28;20311;-70
2023/09/02 03:18:30;;;;;;;6.60;3.00;;;;;;;-145.70;100.00;63560.63;5037896;28;20659;-69
2023/09/02 03:21:02;;;;;;;9.38;3.75;;;;;;;-145.70;100.00;63560.63;5023223;28;20040;-71
2023/09/02 03:23:27;;;;;;;6.18;3.40;;;;;;;-145.70;100.00;63560.63;5040494;28;20043;-73
2023/09/02 03:25:55;;;;;;;7.57;3.83;;;;;;;-145.70;100.00;63560.63;5034798;28;20032;-70
2023/09/02 03:28:20;;;;;;;7.40;3.55;;;;;;;-145.70;100.00;63560.63;5041102;28;20571;-71
2023/09/02 03:30:46;;;;;;;6.97;3.38;;;;;;;-145.70;100.00;63560.63;5007112;28;20034;-68
2023/09/02 03:33:14;;;;;;;7.20;3.45;;;;;;;-145.70;100.00;63560.63;5042221;28;20045;-71
2023/09/02 03:35:40;;;;;;;6.78;3.88;;;;;;;-145.70;100.00;63560.63;5043113;28;20036;-70
2023/09/02 03:38:08;;;;;;;7.07;3.95;;;;;;;-145.70;100.00;63560.63;5044627;28;20060;-74
2023/09/02 03:40:34;;;;;;;7.28;3.45;;;;;;;-145.70;100.00;63560.63;5025106;28;20359;-67
2023/09/02 03:42:59;;;;;;;6.60;3.63;;;;;;;-145.70;100.00;63560.63;5026090;28;20551;-69
2023/09/02 03:45:29;;;;;;;6.85;3.83;;;;;;;-145.70;100.00;63560.63;5016293;28;20028;-69
2023/09/02 03:47:57;;;;;;;9.50;3.58;;;;;;;-145.70;100.00;63560.63;5040645;28;20156;-68
2023/09/02 03:50:25;;;;;;;6.20;3.25;;;;;;;-145.70;100.00;63560.63;5009476;28;20058;-69
2023/09/02 03:52:50;;;;;;;10.07;3.60;;;;;;;-145.70;100.00;63560.63;5040689;28;20580;-70
2023/09/02 03:55:18;;;;;;;6.30;3.33;;;;;;;-145.70;100.00;63560.63;5029191;28;20037;-69
2023/09/02 03:57:43;;;;;;;6.53;3.60;;;;;;;-145.70;100.00;63560.63;5024334;28;20067;-68
2023/09/02 04:00:09;;;;;;;8.70;3.05;;;;;;;-145.70;100.00;63560.63;5009483;28;22082;-72
2023/09/02 04:02:39;;;;;;;6.53;3.47;;;;;;;-145.70;100.00;63560.63;5027734;28;20060;-70
2023/09/02 04:05:05;;;;;;;6.18;3.30;;;;;;;-145.70;100.00;63560.63;5013635;28;20036;-72
2023/09/02 04:07:30;;;;;;;7.10;3.40;;;;;;;-145.70;100.00;63560.63;5034309;28;20056;-70
2023/09/02 04:09:57;;;;;;;7.85;3.70;;;;;;;-145.70;100.00;63560.63;5054284;28;20029;-74
2023/09/02 04:12:22;;;;;;;7.50;3.60;;;;;;;-145.70;100.00;63560.63;5023281;28;20039;-73
2023/09/02 04:14:48;;;;;;;10.18;3.78;;;;;;;-145.70;100.00;63560.63;5017984;28;20048;-69
2023/09/02 04:17:16;;;;;;;6.72;3.60;;;;;;;-145.70;100.00;63560.63;5022993;28;20049;-73
2023/09/02 04:19:42;;;;;;;7.22;3.30;;;;;;;-145.70;100.00;63560.63;5026263;28;20076;-74
2023/09/02 04:22:07;;;;;;;6.80;3.80;;;;;;;-145.70;100.00;63560.63;5038238;28;21187;-70
2023/09/02 04:24:35;;;;;;;6.43;3.38;;;;;;;-145.70;100.00;63560.63;5011038;28;20729;-72
2023/09/02 04:27:03;;;;;;;6.47;3.33;;;;;;;-145.70;100.00;63560.63;5051712;28;21086;-69
2023/09/02 04:29:29;;;;;;;6.68;3.35;;;;;;;-145.70;100.00;63560.63;5037293;28;20035;-71
2023/09/02 04:31:56;;;;;;;7.53;3.80;;;;;;;-145.70;100.00;63560.63;5020238;28;20029;-69
2023/09/02 04:34:22;;;;;;;6.03;3.40;;;;;;;-145.70;100.00;63560.63;5027224;28;20080;-72
2023/09/02 04:36:47;;;;;;;7.13;3.70;;;;;;;-145.70;100.00;63560.63;5032388;28;20036;-71
2023/09/02 04:39:15;;;;;;;6.82;3.30;;;;;;;-145.70;100.00;63560.63;5055214;28;20090;-71
2023/09/02 04:41:41;;;;;;;6.43;3.53;;;;;;;-145.70;100.00;63560.63;5023179;28;20060;-69
2023/09/02 04:44:06;;;;;;;5.72;3.30;;;;;;;-145.70;100.00;63560.63;5039912;28;20797;-69
2023/09/02 04:46:31;;;;;;;6.72;3.25;;;;;;;-145.70;100.00;63560.63;5039225;28;20057;-72
2023/09/02 04:48:59;;;;;;;6.82;3.33;;;;;;;-145.70;100.00;63560.63;5038120;28;20041;-71
2023/09/02 04:51:25;;;;;;;7.13;3.45;;;;;;;-145.70;100.00;63560.63;5037611;28;20029;-70
2023/09/02 04:53:52;;;;;;;6.82;3.58;;;;;;;-145.70;100.00;63560.63;5023447;28;20033;-73
2023/09/02 04:56:18;;;;;;;6.72;3.45;;;;;;;-145.70;100.00;63560.63;5023977;28;20102;-68
2023/09/02 04:58:43;;;;;;;6.57;3.45;;;;;;;-145.70;100.00;63560.63;5030407;28;20025;-68
2023/09/02 05:01:13;;;;;;;6.10;3.22;;;;;;;-145.70;100.00;63560.63;5020214;28;20114;-73
2023/09/02 05:03:39;;;;;;;8.07;3.58;;;;;;;-145.70;100.00;63560.63;5046534;28;20033;-69
2023/09/02 05:06:07;;;;;;;6.82;3.63;;;;;;;-145.70;100.00;63560.63;5025346;28;20078;-68
2023/09/02 05:08:34;;;;;;;6.20;3.45;;;;;;;-145.70;100.00;63560.63;5025040;28;20108;-72
2023/09/02 05:11:00;;;;;;;6.57;3.17;;;;;;;-145.70;100.00;63560.63;5026982;28;20067;-71
2023/09/02 05:13:25;;;;;;;8.20;3.60;;;;;;;-145.70;100.00;63560.63;5025716;28;20112;-71
2023/09/02 05:15:50;;;;;;;7.55;3.50;;;;;;;-145.70;100.00;63560.63;5038889;28;20547;-71
2023/09/02 05:18:16;;;;;;;7.18;3.50;;;;;;;-145.70;100.00;63560.63;5045081;28;20077;-72
2023/09/02 05:20:41;;;;;;;6.13;3.22;;;;;;;-145.70;100.00;63560.63;5043442;28;20911;-70
2023/09/02 05:23:11;;;;;;;5.95;3.53;;;;;;;-145.70;100.00;63560.63;5027524;28;20041;-71
2023/09/02 05:25:39;;;;;;;6.93;3.55;;;;;;;-145.70;100.00;63560.63;5043343;28;20083;-71
2023/09/02 05:28:05;;;;;;;8.13;4.00;;;;;;;-145.70;100.00;63560.63;5042594;28;20048;-73
2023/09/02 05:30:35;;;;;;;7.18;3.47;;;;;;;-145.70;100.00;63560.63;5038375;28;20025;-72
2023/09/02 05:33:01;;;;;;;6.15;3.58;;;;;;;-145.70;100.00;63560.63;5047447;28;20178;-71
2023/09/02 05:35:30;;;;;;;6.88;3.50;;;;;;;-145.70;100.00;63560.63;5025529;28;20615;-71
2023/09/02 05:37:58;;;;;;;6.90;3.60;;;;;;;-145.70;100.00;63560.63;5039823;28;20033;-72
2023/09/02 05:40:25;;;;;;;8.10;3.67;;;;;;;-145.70;100.00;63560.63;5024857;28;20091;-70
2023/09/02 05:42:51;;;;;;;6.60;3.55;;;;;;;-145.70;100.00;63560.63;5032500;28;20055;-71
2023/09/02 05:45:18;;;;;;;6.80;3.63;;;;;;;-145.70;100.00;63560.63;5040974;28;20029;-71
2023/09/02 05:47:44;;;;;;;6.80;3.40;;;;;;;-145.70;100.00;63560.63;5040617;28;20445;-72
2023/09/02 05:50:10;;;;;;;7.35;3.75;;;;;;;-145.70;100.00;63560.63;5040572;28;20040;-69
2023/09/02 05:52:35;;;;;;;8.68;3.97;;;;;;;-145.70;100.00;63560.63;5043050;28;20097;-72
2023/09/02 05:55:00;;;;;;;8.30;4.55;;;;;;;-145.70;100.00;63560.63;5045133;28;20037;-71
2023/09/02 05:57:26;;;;;;;11.27;4.43;;;;;;;-145.70;100.00;63560.63;5029061;28;20512;-71
2023/09/02 05:59:54;;;;;;;7.10;4.10;;;;;;;-145.70;100.00;63560.63;5044758;28;20067;-72
2023/09/02 06:02:21;;;;;;;8.80;3.70;;;;;;;-145.70;100.00;63560.63;5048929;28;20040;-70
2023/09/02 06:04:49;;;;;;;8.50;4.18;;;;;;;-145.70;100.00;63560.63;5044167;28;20033;-71
2023/09/02 06:07:14;;;;;;;13.55;11.40;;;;;;;-145.70;100.00;63560.63;5027732;28;20047;-71
2023/09/02 06:09:45;;;;;;;11.82;7.78;;;;;;;-145.70;100.00;63560.63;5027869;28;20390;-72
2023/09/02 06:12:10;;;;;;;8.65;4.20;;;;;;;-145.70;100.00;63560.63;5036010;28;20464;-72
2023/09/02 06:14:38;;;;;;;6.13;3.55;;;;;;;-145.70;100.00;63560.63;5019887;28;20028;-70
2023/09/02 06:17:04;;;;;;;6.75;3.35;;;;;;;-145.70;100.00;63560.63;5033193;28;20033;-67
2023/09/02 06:19:29;;;;;;;6.72;3.80;;;;;;;-145.70;100.00;63560.63;5047001;28;20029;-68
2023/09/02 06:21:54;;;;;;;7.97;3.78;;;;;;;-145.70;100.00;63560.63;5019736;28;20060;-68
2023/09/02 06:24:22;;;;;;;5.97;3.58;;;;;;;-145.70;100.00;63560.63;5023950;28;20016;-69
2023/09/02 06:26:47;;;;;;;7.03;4.30;;;;;;;-145.70;100.00;63560.63;5040675;28;20021;-72
2023/09/02 06:29:13;;;;;;;7.35;3.53;;;;;;;-145.70;100.00;63560.63;5018838;28;20048;-70
2023/09/02 06:31:41;;;;;;;7.10;3.70;;;;;;;-145.70;100.00;63560.63;5019159;28;20528;-70
2023/09/02 06:34:09;;;;;;;6.68;3.80;;;;;;;-145.70;100.00;63560.63;5019854;28;20031;-72
2023/09/02 06:36:37;;;;;;;7.38;4.05;;;;;;;-145.70;100.00;63560.63;5052069;28;20106;-73
2023/09/02 06:39:04;;;;;;;5.68;3.47;;;;;;;-145.70;100.00;63560.63;5023126;28;20025;-71
2023/09/02 06:41:32;;;;;;;6.93;3.60;;;;;;;-145.70;100.00;63560.63;5020114;28;20115;-73
2023/09/02 06:43:57;;;;;;;9.88;5.95;;;;;;;-145.70;100.00;63560.63;5020185;28;20089;-69
2023/09/02 06:46:25;;;;;;;46.15;26.77;;;;;;;-145.70;100.00;63560.63;5018128;28;20032;-72
2023/09/02 06:48:51;;;;;;;76.72;49.22;;;;;;;-145.70;100.00;63560.63;5028113;28;20038;-70
2023/09/02 06:51:17;;;;;;;40.03;27.58;;;;;;;-145.70;100.00;63560.63;5016615;28;20041;-73
2023/09/02 06:53:43;;;;;;;84.78;54.28;;;;;;;-145.70;100.00;63560.63;5017053;28;20036;-69
2023/09/02 06:56:09;;;;;;;35.22;25.35;;;;;;;-145.70;100.00;63560.63;5036010;28;20134;-72
2023/09/02 06:58:39;;;;;;;61.08;29.10;;;;;;;-145.70;100.00;63560.63;5016062;28;20106;-70
2023/09/02 07:01:04;;;;;;;121.55;34.95;;;;;;;-145.70;100.00;63560.63;5035700;28;20025;-71
2023/09/02 07:03:32;;;;;;;51.22;17.67;;;;;;;-145.70;100.00;63560.63;5027070;28;20616;-72
2023/09/02 07:06:13;;;;;;;12.63;5.50;;;;;;;-145.70;100.00;63560.63;5018993;28;20029;-71
2023/09/02 07:08:39;;;;;;;54.03;18.60;;;;;;;-145.70;100.00;63560.63;5025334;28;20182;-71
2023/09/02 07:11:05;;;;;;;44.83;15.77;;;;;;;-145.70;100.00;63560.63;5017720;28;20484;-69
2023/09/02 07:13:31;;;;;;;92.53;31.67;;;;;;;-145.70;100.00;63560.63;5017709;28;20500;-70
2023/09/02 07:16:01;;;;;;;31.80;11.32;;;;;;;-145.70;100.00;63560.63;5014586;28;20091;-70
2023/09/02 07:18:26;;;;;;;52.75;19.27;;;;;;;-145.70;100.00;63560.63;5030514;28;20067;-71
2023/09/02 07:20:52;;;;;;;71.85;26.45;;;;;;;-145.70;100.00;63560.63;5037400;28;20033;-71
2023/09/02 07:23:19;;;;;;;56.50;23.45;;;;;;;-145.70;100.00;63560.63;5025868;28;20038;-71
2023/09/02 07:25:47;;;;;;;56.45;25.15;;;;;;;-145.70;100.00;63560.63;5021327;28;20317;-72
2023/09/02 07:28:15;;;;;;;47.60;21.00;;;;;;;-145.70;100.00;63560.63;5030248;28;20083;-71
2023/09/02 07:30:43;;;;;;;22.02;9.85;;;;;;;-145.70;100.00;63560.63;5032894;28;20044;-71
2023/09/02 07:33:08;;;;;;;17.77;7.75;;;;;;;-145.70;100.00;63560.63;5032806;28;20029;-70
2023/09/02 07:35:36;;;;;;;14.43;8.00;;;;;;;-145.70;100.00;63560.63;5014714;28;20029;-71
2023/09/02 07:38:04;;;;;;;15.80;8.68;;;;;;;-145.70;100.00;63560.63;5031506;28;20033;-70
2023/09/02 07:40:30;;;;;;;12.70;7.67;;;;;;;-145.70;100.00;63560.63;5028988;28;20036;-72
2023/09/02 07:42:59;;;;;;;11.25;6.68;;;;;;;-145.70;100.00;63560.63;5034559;28;20036;-70
2023/09/02 07:45:25;;;;;;;10.02;5.97;;;;;;;-145.70;100.00;63560.63;5018600;28;20032;-72
2023/09/02 07:47:50;;;;;;;11.63;5.65;;;;;;;-145.70;100.00;63560.63;5014149;28;20033;-72
2023/09/02 07:50:16;;;;;;;7.82;4.93;;;;;;;-145.70;100.00;63560.63;5020584;28;20040;-72
2023/09/02 07:52:41;;;;;;;7.32;3.60;;;;;;;-145.70;100.00;63560.63;5015259;28;20711;-70
2023/09/02 07:55:07;;;;;;;7.00;4.10;;;;;;;-145.70;100.00;63560.63;5014035;28;20094;-72
2023/09/02 07:57:33;;;;;;;8.02;3.55;;;;;;;-145.70;100.00;63560.63;5027599;28;20025;-71
2023/09/02 07:59:59;;;;;;;7.80;3.13;;;;;;;-145.70;100.00;63560.63;5017966;28;20123;-70
2023/09/02 08:02:25;;;;;;;5.55;3.13;;;;;;;-145.70;100.00;63560.63;5032604;28;20026;-74
2023/09/02 08:04:52;;;;;;;6.63;3.47;;;;;;;-145.70;100.00;63560.63;5038426;28;20036;-75
2023/09/02 08:07:18;;;;;;;7.22;3.40;;;;;;;-145.70;100.00;63560.63;5010466;28;20029;-71
2023/09/02 08:09:47;;;;;;;6.68;3.17;;;;;;;-145.70;100.00;63560.63;5032071;28;20078;-71
2023/09/02 08:12:12;;;;;;;6.00;3.30;;;;;;;-145.70;100.00;63560.63;5034509;28;20086;-69
2023/09/02 08:14:38;;;;;;;8.02;3.40;;;;;;;-145.70;100.00;63560.63;5016577;28;20469;-71
2023/09/02 08:17:06;;;;;;;5.40;2.97;;;;;;;-145.70;100.00;63560.63;5033928;28;20384;-68
2023/09/02 08:19:32;;;;;;;8.07;3.53;;;;;;;-145.70;100.00;63560.63;5034751;28;20696;-72
2023/09/02 08:21:57;;;;;;;8.60;4.93;;;;;;;-145.70;100.00;63560.63;5045655;28;20036;-68
2023/09/02 08:24:22;;;;;;;30.85;14.32;;;;;;;-145.70;100.00;63560.63;5012345;28;20040;-73
2023/09/02 08:26:48;;;;;;;9.07;4.72;;;;;;;-145.70;100.00;63560.63;5029699;28;20028;-72
2023/09/02 08:29:13;;;;;;;7.13;3.70;;;;;;;-145.70;100.00;63560.63;5048111;28;20032;-69
2023/09/02 08:31:39;;;;;;;7.28;3.47;;;;;;;-145.70;100.00;63560.63;5033510;28;20035;-67
2023/09/02 08:34:04;;;;;;;6.85;3.10;;;;;;;-145.70;100.00;63560.63;5033104;28;20040;-68
2023/09/02 08:36:30;;;;;;;8.48;4.30;;;;;;;-145.70;100.00;63560.63;5029571;28;20033;-71
2023/09/02 08:38:55;;;;;;;9.30;3.40;;;;;;;-145.70;100.00;63560.63;5030662;28;20107;-70
2023/09/02 08:41:30;;;;;;;8.45;3.72;;;;;;;-145.70;100.00;63560.63;5033709;28;20475;-72
2023/09/02 08:43:58;;;;;;;9.80;5.45;;;;;;;-145.70;100.00;63560.63;5047577;28;20025;-68
2023/09/02 08:46:27;;;;;;;7.78;3.10;;;;;;;-145.70;100.00;63560.63;5033195;28;20048;-69
2023/09/02 08:48:56;;;;;;;11.02;5.47;;;;;;;-145.70;100.00;63560.63;5032671;28;20454;-72
2023/09/02 08:51:24;;;;;;;9.98;5.90;;;;;;;-145.70;100.00;63560.63;5030148;28;20029;-71
2023/09/02 08:53:51;;;;;;;11.30;6.30;;;;;;;-145.70;100.00;63560.63;5031965;28;20036;-71
2023/09/02 08:56:19;;;;;;;7.75;4.50;;;;;;;-145.70;100.00;63560.63;5033177;28;20057;-71
2023/09/02 08:58:45;;;;;;;11.05;5.53;;;;;;;-145.70;100.00;63560.63;5031992;28;20029;-69
2023/09/02 09:01:14;;;;;;;9.98;4.47;;;;;;;-145.70;100.00;63560.63;5032609;28;20040;-67
2023/09/02 09:03:41;;;;;;;16.37;8.33;;;;;;;-145.70;100.00;63560.63;5033998;28;20024;-71
2023/09/02 09:06:09;;;;;;;19.23;9.52;;;;;;;-145.70;100.00;63560.63;5014586;28;20097;-71
2023/09/02 09:08:37;;;;;;;6.40;3.38;;;;;;;-145.70;100.00;63560.63;5012357;28;20093;-71
2023/09/02 09:11:04;;;;;;;16.00;10.70;;;;;;;-145.70;100.00;63560.63;5027527;28;20104;-69
2023/09/02 09:13:30;;;;;;;8.13;4.45;;;;;;;-145.70;100.00;63560.63;5030329;28;20093;-70
2023/09/02 09:15:56;;;;;;;7.40;3.90;;;;;;;-145.70;100.00;63560.63;5032021;28;20545;-71
2023/09/02 09:18:22;;;;;;;5.70;2.97;;;;;;;-145.70;100.00;63560.63;5033664;28;20025;-70
2023/09/02 09:20:49;;;;;;;7.22;3.13;;;;;;;-145.70;100.00;63560.63;5026001;28;20017;-70
2023/09/02 09:23:15;;;;;;;7.93;3.20;;;;;;;-145.70;100.00;63560.63;5010808;28;20094;-69
2023/09/02 09:25:44;;;;;;;6.70;3.05;;;;;;;-145.70;100.00;63560.63;5029843;28;20963;-66
2023/09/02 09:28:11;;;;;;;;;;;;;;;-145.70;100.00;63560.63;5033002;28;20061;-68
2023/09/02 09:30:36;;;;;;;5.97;3.08;;;;;;;-145.70;100.00;63560.63;5027246;28;20258;-70
2023/09/02 09:33:05;;;;;;;6.72;3.30;;;;;;;-145.70;100.00;63560.63;5030944;28;20539;-71
2023/09/02 09:35:32;;;;;;;6.45;3.25;;;;;;;-145.70;100.00;63560.63;5033129;28;20043;-69
2023/09/02 09:37:58;;;;;;;6.50;3.17;;;;;;;-145.70;100.00;63560.63;5033902;28;20170;-70
2023/09/02 09:40:34;;;;;;;9.02;3.40;;;;;;;-145.70;100.00;63560.63;5034563;28;20040;-68
2023/09/02 09:43:14;;;;;;;7.10;3.38;;;;;;;-145.70;100.00;63560.63;5034969;28;20063;-65
2023/09/02 09:45:51;;;;;;;7.82;3.42;;;;;;;-145.70;100.00;63560.63;5037011;28;20450;-68
2023/09/02 09:48:16;;;;;;;6.57;3.78;;;;;;;-145.70;100.00;63560.63;5019243;28;20060;-72
2023/09/02 09:50:42;;;;;;;8.10;3.15;;;;;;;-145.70;100.00;63560.63;5051762;28;20132;-73
2023/09/02 09:53:09;;;;;;;6.85;3.40;;;;;;;-145.70;100.00;63560.63;5033646;28;20503;-67
2023/09/02 09:55:35;;;;;;;8.65;3.35;;;;;;;-145.70;100.00;63560.63;5029494;28;20214;-70
2023/09/02 09:58:03;;;;;;;6.70;2.80;;;;;;;-145.70;100.00;63560.63;5031458;28;20085;-67
2023/09/02 10:00:32;;;;;;;5.82;2.88;;;;;;;-145.70;100.00;63560.63;5015902;28;20040;-66
2023/09/02 10:02:58;;;;;;;6.73;3.10;;;;;;;-145.70;100.00;63560.63;5033871;28;20068;-69
2023/09/02 10:05:29;;;;;;;5.68;3.05;;;;;;;-145.70;100.00;63560.63;5032677;28;20278;-66
2023/09/02 10:08:05;;;;;;;5.97;3.50;;;;;;;-145.70;100.00;63560.63;5031572;28;20064;-68
2023/09/02 10:10:35;;;;;;;5.93;2.95;;;;;;;-145.70;100.00;63560.63;5050541;28;20101;-69
2023/09/02 10:13:02;;;;;;;7.20;3.28;;;;;;;-145.70;100.00;63560.63;5034511;28;20898;-69
2023/09/02 10:15:30;;;;;;;8.07;3.20;;;;;;;-145.70;100.00;63560.63;5034172;28;20103;-68
2023/09/02 10:18:01;;;;;;;8.20;3.73;;;;;;;-145.70;100.00;63560.63;5015675;28;20052;-70
2023/09/02 10:20:29;;;;;;;8.32;3.22;;;;;;;-145.70;100.00;63560.63;5034884;28;20037;-69
2023/09/02 10:23:07;;;;;;;5.87;3.00;;;;;;;-145.70;100.00;63560.63;5050922;28;20106;-66
2023/09/02 10:25:45;;;;;;;6.93;3.40;;;;;;;-145.70;100.00;63560.63;5031156;28;20021;-72
2023/09/02 10:28:20;;;;;;;6.28;3.30;;;;;;;-145.70;100.00;63560.63;5029047;28;20773;-69
2023/09/02 10:30:51;;;;;;;6.30;2.92;;;;;;;-145.70;100.00;63560.63;5029030;28;20034;-66
2023/09/02 10:33:19;;;;;;;6.28;2.83;;;;;;;-145.70;100.00;63560.63;5045059;28;20064;-69
2023/09/02 10:35:47;;;;;;;5.72;2.72;;;;;;;-145.70;100.00;63560.63;5030147;28;20502;-68
2023/09/02 10:38:19;;;;;;;6.75;2.67;;;;;;;-145.70;100.00;63560.63;5008441;28;20037;-70
2023/09/02 10:40:49;;;;;;;6.00;3.03;;;;;;;-145.70;100.00;63560.63;5044498;28;20033;-68
2023/09/02 10:43:14;;;;;;;;;;;;;;;-145.70;100.00;63560.63;5029883;28;20036;-70
2023/09/02 10:45:40;;;;;;;6.13;3.17;;;;;;;-145.70;100.00;63560.63;5029517;28;19925;-65
2023/09/02 10:48:06;;;;;;;9.00;3.60;;;;;;;-145.70;100.00;63560.63;5028945;28;20033;-70
2023/09/02 10:50:33;;;;;;;6.88;3.25;;;;;;;-145.70;100.00;63560.63;5031101;28;20728;-71
2023/09/02 10:52:59;;;;;;;7.72;3.65;;;;;;;-145.70;100.00;63560.63;5048059;28;20120;-68
2023/09/02 10:55:27;;;;;;;6.93;3.00;;;;;;;-145.70;100.00;63560.63;5034393;28;20033;-66
2023/09/02 10:57:54;;;;;;;6.88;3.30;;;;;;;-145.70;100.00;63560.63;5024769;28;20066;-67
2023/09/02 11:00:27;;;;;;;5.70;3.55;;;;;;;-145.70;100.00;63560.63;5038068;28;20253;-67
2023/09/02 11:02:54;;;;;;;7.55;3.60;;;;;;;-145.70;100.00;63560.63;5021046;28;20391;-73
2023/09/02 11:05:21;;;;;;;7.97;3.13;;;;;;;-145.70;100.00;63560.63;5038645;28;20029;-67
2023/09/02 11:07:48;;;;;;;7.43;3.20;;;;;;;-145.70;100.00;63560.63;5016614;28;20040;-69